Time;durP1;ratioP1;P1;durP2;ratioP2;P2;SDS_P1;SDS_P2;PMS_P1;PMS_P2;Temp;Humidity;BMP_temperature;BMP_pressure;BME280_temperature;BME280_humidity;BME280_pressure;Samples;Min_cycle;Max_cycle;Signal;HPM_P1;HPM_P2
2023/02/01 00:00:58;;;;;;;;;;;;;;;6.46;55.82;101288.78;5063761;28;19912;-80
2023/02/01 00:03:50;;;;;;;;;;;;;;;6.07;57.07;101282.38;5064468;28;19917;-81
2023/02/01 00:06:42;;;;;;;;;;;;;;;6.28;56.83;101271.28;5061329;28;19913;-81
2023/02/01 00:09:31;;;;;;;;;;;;;;;6.14;56.49;101285.63;5064952;28;19912;-81
2023/02/01 00:12:23;;;;;;;;;;;;;;;5.95;57.49;101269.97;5062930;28;19917;-81
2023/02/01 00:15:12;;;;;;;;;;;;;;;6.26;57.17;101272.63;5062156;28;19917;-80
2023/02/01 00:18:02;;;;;;;;;;;;;;;6.05;57.10;101271.03;5066584;28;19912;-80
2023/02/01 00:20:51;;;;;;;;;;;;;;;5.97;57.00;101273.22;5064081;28;19913;-80
2023/02/01 00:23:43;;;;;;;;;;;;;;;6.40;56.61;101262.88;5066147;28;19917;-80
2023/02/01 00:26:36;;;;;;;;;;;;;;;6.33;57.15;101263.19;5063979;28;19912;-80
2023/02/01 00:29:26;;;;;;;;;;;;;;;6.38;55.75;101265.88;5064256;28;19912;-80
2023/02/01 00:32:15;;;;;;;;;;;;;;;6.55;55.90;101273.66;5067270;28;19912;-82
2023/02/01 00:35:08;;;;;;;;;;;;;;;6.23;56.42;101274.00;5064429;28;19913;-80
2023/02/01 00:38:00;;;;;;;;;;;;;;;6.05;56.35;101276.44;5063384;28;20369;-82
2023/02/01 00:40:47;;;;;;;;;;;;;;;5.66;57.09;101268.84;5060409;28;19912;-84
2023/02/01 00:43:39;;;;;;;;;;;;;;;5.74;56.83;101276.41;5069434;28;19916;-85
2023/02/01 00:46:29;;;;;;;;;;;;;;;5.60;56.94;101267.22;5069230;28;20393;-85
2023/02/01 00:49:21;;;;;;;;;;;;;;;5.50;57.03;101269.91;5066041;28;19934;-83
2023/02/01 00:52:13;;;;;;;;;;;;;;;5.46;57.82;101269.63;5052582;28;19916;-83
2023/02/01 00:55:03;;;;;;;;;;;;;;;5.39;58.00;101271.78;5058819;28;19912;-84
2023/02/01 00:57:55;;;;;;;;;;;;;;;5.73;57.43;101269.41;5057201;28;19913;-83
2023/02/01 01:00:47;;;;;;;;;;;;;;;5.58;58.95;101267.50;5052422;28;20378;-83
2023/02/01 01:03:34;;;;;;;;;;;;;;;4.88;59.96;101268.13;5053129;28;19917;-83
2023/02/01 01:06:27;;;;;;;;;;;;;;;5.06;60.20;101270.34;5064002;28;19913;-84
2023/02/01 01:09:17;;;;;;;;;;;;;;;5.99;60.42;101267.56;5068547;28;20373;-84
2023/02/01 01:12:05;;;;;;;;;;;;;;;6.29;57.42;101272.09;5064611;28;19912;-83
2023/02/01 01:14:57;;;;;;;;;;;;;;;6.04;55.51;101277.53;5064585;28;19912;-82
2023/02/01 01:17:46;;;;;;;;;;;;;;;6.47;56.28;101271.50;5066555;28;19913;-83
2023/02/01 01:20:36;;;;;;;;;;;;;;;6.42;55.11;101266.94;5061999;28;19912;-83
2023/02/01 01:23:29;;;;;;;;;;;;;;;5.85;56.33;101267.22;5062704;28;19916;-83
2023/02/01 01:26:22;;;;;;;;;;;;;;;5.87;56.98;101261.59;5067958;28;20281;-83
2023/02/01 01:29:14;;;;;;;;;;;;;;;6.41;56.16;101259.91;5063840;28;19913;-83
2023/02/01 01:32:06;;;;;;;;;;;;;;;5.99;56.83;101262.94;5061739;28;19913;-82
2023/02/01 01:34:56;;;;;;;;;;;;;;;5.71;57.54;101259.94;5066282;28;19912;-83
2023/02/01 01:37:48;;;;;;;;;;;;;;;5.65;56.66;101250.22;5065224;28;20288;-83
2023/02/01 01:40:40;;;;;;;;;;;;;;;5.55;57.42;101259.94;5064862;28;19913;-83
2023/02/01 01:43:48;;;;;;;;;;;;;;;5.32;58.91;101259.63;5061841;28;19916;-83
2023/02/01 01:46:40;;;;;;;;;;;;;;;5.40;57.58;101253.72;5064371;28;19912;-83
2023/02/01 01:49:32;;;;;;;;;;;;;;;5.43;57.42;101258.59;5061567;28;20369;-83
2023/02/01 01:52:24;;;;;;;;;;;;;;;5.86;57.95;101258.06;5066049;28;19913;-84
2023/02/01 01:55:16;;;;;;;;;;;;;;;5.51;57.69;101248.06;5061687;28;19920;-84
2023/02/01 01:58:26;;;;;;;;;;;;;;;5.58;57.27;101239.72;5060262;28;19912;-84
2023/02/01 02:01:15;;;;;;;;;;;;;;;6.06;57.86;101241.06;5059879;28;19913;-84
2023/02/01 02:04:06;;;;;;;;;;;;;;;6.14;56.38;101239.72;5060373;28;19916;-84
2023/02/01 02:07:02;;;;;;;;;;;;;;;5.98;55.63;101239.75;5065052;28;20393;-84
2023/02/01 02:09:55;;;;;;;;;;;;;;;5.82;55.66;101235.41;5059608;28;19913;-84
2023/02/01 02:12:48;;;;;;;;;;;;;;;5.97;57.20;101224.63;5059137;28;20373;-84
2023/02/01 02:15:39;;;;;;;;;;;;;;;5.97;56.44;101221.94;5061019;28;19913;-83
2023/02/01 02:18:46;;;;;;;;;;;;;;;6.16;57.15;101221.34;5060500;28;19913;-84
2023/02/01 02:21:45;;;;;;;;;;;;;;;6.40;55.76;101216.94;5052830;28;19913;-83
2023/02/01 02:24:52;;;;;;;;;;;;;;;6.19;55.60;101220.81;5045484;28;19917;-83
2023/02/01 02:27:52;;;;;;;;;;;;;;;6.45;57.18;101225.84;5041461;28;19929;-83
2023/02/01 02:30:53;;;;;;;;;;;;;;;6.25;54.72;101228.59;5058416;28;19917;-83
2023/02/01 02:33:46;;;;;;;;;;;;;;;6.51;55.76;101225.84;5041281;28;19925;-83
2023/02/01 02:36:43;;;;;;;;;;;;;;;6.51;56.08;101221.25;5046416;28;19913;-82
2023/02/01 02:39:43;;;;;;;;;;;;;;;6.17;56.44;101225.66;5056958;28;19913;-83
2023/02/01 02:49:28;;;;;;;;;;;;;;;6.64;56.19;101231.47;5055498;28;19917;-82
2023/02/01 02:55:31;;;;;;;;;;;;;;;6.85;55.51;101226.81;5064899;28;19913;-83
2023/02/01 03:04:35;;;;;;;;;;;;;;;6.48;55.33;101226.41;5061887;28;19916;-83
2023/02/01 03:07:44;;;;;;;;;;;;;;;5.90;56.13;101226.78;5067042;28;19913;-83
2023/02/01 03:10:49;;;;;;;;;;;;;;;6.38;56.93;101235.34;5062409;28;19912;-83
2023/02/01 03:13:54;;;;;;;;;;;;;;;6.55;55.82;101235.84;5064280;28;19912;-84
2023/02/01 03:16:50;;;;;;;;;;;;;;;6.43;55.34;101246.13;5061643;28;20369;-83
2023/02/01 03:19:43;;;;;;;;;;;;;;;5.97;53.95;101232.72;5059776;28;19913;-83
2023/02/01 03:22:34;;;;;;;;;;;;;;;5.91;55.33;101238.38;5058833;28;19908;-83
2023/02/01 03:25:27;;;;;;;;;;;;;;;5.67;55.89;101237.28;5059969;28;19913;-84
2023/02/01 03:28:21;;;;;;;;;;;;;;;5.83;56.98;101247.81;5063701;28;19912;-83
2023/02/01 03:31:13;;;;;;;;;;;;;;;5.57;57.89;101243.50;5061625;28;19921;-83
2023/02/01 03:34:05;;;;;;;;;;;;;;;6.10;57.59;101230.53;5063814;28;19912;-83
2023/02/01 03:37:15;;;;;;;;;;;;;;;5.89;56.20;101249.44;5070048;28;19913;-83
2023/02/01 03:40:10;;;;;;;;;;;;;;;5.55;55.80;101241.06;5044459;28;19913;-84
2023/02/01 03:43:01;;;;;;;;;;;;;;;5.38;56.70;101247.78;5047849;28;19917;-83
2023/02/01 03:45:54;;;;;;;;;;;;;;;5.05;57.59;101246.34;5064007;28;19916;-82
2023/02/01 03:48:43;;;;;;;;;;;;;;;5.04;58.35;101233.94;5061615;28;19917;-82
2023/02/01 03:51:38;;;;;;;;;;;;;;;5.43;58.25;101243.22;5060861;28;19912;-83
2023/02/01 03:54:27;;;;;;;;;;;;;;;5.71;57.51;101244.56;5062613;28;19913;-83
2023/02/01 03:57:20;;;;;;;;;;;;;;;5.64;56.92;101238.63;5061064;28;19913;-82
2023/02/01 04:00:16;;;;;;;;;;;;;;;5.58;57.57;101247.81;5064400;28;19913;-83
2023/02/01 04:03:09;;;;;;;;;;;;;;;5.62;57.94;101245.38;5063803;28;19916;-83
2023/02/01 04:06:01;;;;;;;;;;;;;;;5.51;57.79;101244.56;5069004;28;19913;-83
2023/02/01 04:08:53;;;;;;;;;;;;;;;5.46;60.54;101248.06;5065808;28;19916;-84
2023/02/01 04:11:46;;;;;;;;;;;;;;;5.76;60.50;101246.47;5065457;28;19916;-83
2023/02/01 04:14:38;;;;;;;;;;;;;;;5.52;57.10;101244.31;5068547;28;19912;-83
2023/02/01 04:17:30;;;;;;;;;;;;;;;4.10;63.97;101244.84;5067523;28;19912;-83
2023/02/01 04:20:22;;;;;;;;;;;;;;;4.99;62.89;101252.81;5069372;28;19913;-82
2023/02/01 04:23:14;;;;;;;;;;;;;;;5.09;58.51;101252.84;5066020;28;19917;-82
2023/02/01 04:26:08;;;;;;;;;;;;;;;4.66;58.61;101251.34;5067445;28;19913;-82
2023/02/01 04:28:57;;;;;;;;;;;;;;;4.91;58.67;101267.59;5071033;28;19912;-82
2023/02/01 04:31:47;;;;;;;;;;;;;;;5.21;60.55;101260.69;5066135;28;19913;-82
2023/02/01 04:34:39;;;;;;;;;;;;;;;4.91;59.16;101261.41;5067885;28;19913;-81
2023/02/01 04:37:26;;;;;;;;;;;;;;;4.64;59.93;101261.56;5070331;28;20397;-81
2023/02/01 04:40:15;;;;;;;;;;;;;;;5.32;62.50;101267.72;5067864;28;19912;-82
2023/02/01 04:43:07;;;;;;;;;;;;;;;5.10;58.17;101273.31;5066063;28;19917;-82
2023/02/01 04:45:57;;;;;;;;;;;;;;;4.81;58.50;101264.88;5068786;28;19912;-83
2023/02/01 04:48:46;;;;;;;;;;;;;;;4.81;59.22;101261.38;5068313;28;19913;-82
2023/02/01 04:51:38;;;;;;;;;;;;;;;4.67;58.42;101266.44;5066173;28;19913;-81
2023/02/01 04:54:28;;;;;;;;;;;;;;;4.65;58.75;101263.19;5069107;28;20373;-82
2023/02/01 04:57:20;;;;;;;;;;;;;;;4.57;60.18;101256.41;5067028;28;19912;-81
2023/02/01 05:00:12;;;;;;;;;;;;;;;4.41;60.45;101262.78;5069881;28;19912;-82
2023/02/01 05:03:05;;;;;;;;;;;;;;;4.61;61.17;101252.13;5067481;28;19917;-81
2023/02/01 05:05:57;;;;;;;;;;;;;;;4.51;59.61;101240.50;5065464;28;19912;-81
2023/02/01 05:08:49;;;;;;;;;;;;;;;5.00;59.89;101257.13;5068595;28;19921;-82
2023/02/01 05:14:47;;;;;;;;;;;;;;;5.38;57.85;101254.00;5070545;28;19913;-82
2023/02/01 05:17:39;;;;;;;;;;;;;;;5.58;57.56;101266.69;5069786;28;19913;-83
2023/02/01 05:20:29;;;;;;;;;;;;;;;5.31;57.39;101266.09;5068427;28;19912;-83
2023/02/01 05:23:21;;;;;;;;;;;;;;;5.27;55.70;101270.41;5071423;28;19917;-84
2023/02/01 05:26:08;;;;;;;;;;;;;;;4.86;55.94;101262.19;5061780;28;20125;-83
2023/02/01 05:28:58;;;;;;;;;;;;;;;5.18;56.90;101265.53;5071635;28;19912;-83
2023/02/01 05:31:48;;;;;;;;;;;;;;;5.28;55.65;101266.66;5060358;28;19912;-83
2023/02/01 05:34:40;;;;;;;;;;;;;;;4.95;55.16;101266.00;5067831;28;19912;-82
2023/02/01 05:37:30;;;;;;;;;;;;;;;4.97;53.37;101258.47;5071029;28;19912;-83
2023/02/01 05:40:22;;;;;;;;;;;;;;;5.19;53.02;101250.16;5067775;28;19913;-83
2023/02/01 05:43:14;;;;;;;;;;;;;;;4.94;53.13;101263.56;5062882;28;19921;-83
2023/02/01 05:46:03;;;;;;;;;;;;;;;4.64;54.76;101261.56;5070202;28;19913;-82
2023/02/01 05:48:55;;;;;;;;;;;;;;;4.68;56.31;101259.94;5066887;28;19913;-81
2023/02/01 05:51:48;;;;;;;;;;;;;;;4.66;54.46;101262.94;5062672;28;19913;-82
2023/02/01 05:54:40;;;;;;;;;;;;;;;4.62;55.29;101258.34;5067319;28;19913;-85
2023/02/01 05:57:29;;;;;;;;;;;;;;;4.83;55.67;101261.91;5066145;28;19913;-80
2023/02/01 06:00:21;;;;;;;;;;;;;;;4.65;53.91;101257.78;5067297;28;19912;-82
2023/02/01 06:03:14;;;;;;;;;;;;;;;5.21;54.60;101260.69;5066410;28;19921;-81
2023/02/01 06:06:06;;;;;;;;;;;;;;;5.45;53.89;101264.50;5063622;28;19913;-81
2023/02/01 06:08:55;;;;;;;;;;;;;;;5.21;53.18;101274.16;5066290;28;19912;-79
2023/02/01 06:11:47;;;;;;;;;;;;;;;5.05;53.86;101271.44;5060975;28;19912;-79
2023/02/01 06:14:37;;;;;;;;;;;;;;;4.80;54.45;101260.56;5059883;28;19913;-80
2023/02/01 06:17:27;;;;;;;;;;;;;;;4.76;55.66;101259.47;5063706;28;19913;-81
2023/02/01 06:20:16;;;;;;;;;;;;;;;4.54;55.03;101266.88;5063346;28;19913;-87
2023/02/01 06:23:09;;;;;;;;;;;;;;;4.41;55.60;101260.09;5066878;28;19913;-86
2023/02/01 06:26:08;;;;;;;;;;;;;;;4.50;56.03;101263.09;5066704;28;19913;-85
2023/02/01 06:28:57;;;;;;;;;;;;;;;4.54;56.23;101261.50;5071760;28;19913;-87
2023/02/01 06:31:49;;;;;;;;;;;;;;;4.51;57.07;101251.28;5062859;28;19912;-87
2023/02/01 06:34:41;;;;;;;;;;;;;;;4.88;58.70;101262.72;5055900;28;19913;-85
2023/02/01 06:37:31;;;;;;;;;;;;;;;5.11;58.22;101259.59;5055089;28;19916;-87
2023/02/01 06:40:23;;;;;;;;;;;;;;;4.75;56.44;101255.16;5064943;28;19912;-87
2023/02/01 06:43:08;;;;;;;;;;;;;;;4.52;58.10;101263.66;5067704;28;19913;-88
2023/02/01 06:46:08;;;;;;;;;;;;;;;4.56;57.61;101270.16;5067853;28;19913;-87
2023/02/01 06:48:57;;;;;;;;;;;;;;;4.77;59.12;101263.78;5068544;28;19912;-87
2023/02/01 06:51:49;;;;;;;;;;;;;;;4.76;57.37;101262.16;5060633;28;19913;-87
2023/02/01 06:54:41;;;;;;;;;;;;;;;4.88;58.18;101270.81;5068105;28;19921;-87
2023/02/01 06:57:30;;;;;;;;;;;;;;;4.87;59.85;101279.19;5067211;28;19912;-87
2023/02/01 07:00:20;;;;;;;;;;;;;;;5.02;61.53;101271.16;5061458;28;19913;-87
2023/02/01 07:03:12;;;;;;;;;;;;;;;5.28;61.44;101272.84;5068045;28;19913;-87
2023/02/01 07:06:04;;;;;;;;;;;;;;;5.55;58.98;101273.41;5070817;28;19916;-87
2023/02/01 07:08:55;;;;;;;;;;;;;;;5.33;59.24;101282.84;5065224;28;19924;-88
2023/02/01 07:11:47;;;;;;;;;;;;;;;4.22;64.52;101278.53;5066930;28;19913;-89
2023/02/01 07:14:37;;;;;;;;;;;;;;;4.83;64.49;101280.75;5072847;28;19913;-88
2023/02/01 07:17:29;;;;;;;;;;;;;;;4.75;60.51;101282.09;5070423;28;19912;-87
2023/02/01 07:20:18;;;;;;;;;;;;;;;4.26;60.27;101286.94;5067748;28;19912;-87
2023/02/01 07:23:11;;;;;;;;;;;;;;;4.46;61.00;101288.94;5069845;28;19913;-87
2023/02/01 07:26:03;;;;;;;;;;;;;;;4.30;59.27;101288.03;5059786;28;19913;-87
2023/02/01 07:28:53;;;;;;;;;;;;;;;4.38;59.48;101292.91;5060071;28;19913;-86
2023/02/01 07:31:42;;;;;;;;;;;;;;;4.89;59.69;101285.09;5054406;28;19912;-85
2023/02/01 07:34:34;;;;;;;;;;;;;;;4.71;59.40;101292.59;5066276;28;19916;-86
2023/02/01 07:37:24;;;;;;;;;;;;;;;4.54;59.31;101296.50;5063067;28;19913;-85
2023/02/01 07:40:17;;;;;;;;;;;;;;;4.64;62.17;101288.50;5065575;28;19913;-81
2023/02/01 07:43:07;;;;;;;;;;;;;;;4.40;65.21;101290.78;5055766;28;19912;-79
2023/02/01 07:45:57;;;;;;;;;;;;;;;3.93;62.49;101297.97;5046253;28;20316;-78
2023/02/01 07:48:46;;;;;;;;;;;;;;;3.76;63.07;101301.59;5048440;28;19912;-78
2023/02/01 07:51:36;;;;;;;;;;;;;;;3.99;62.31;101307.72;5050154;28;19912;-77
2023/02/01 07:54:25;;;;;;;;;;;;;;;4.05;63.00;101312.06;5055334;28;19912;-77
2023/02/01 07:57:17;;;;;;;;;;;;;;;4.51;63.16;101319.41;5056663;28;19913;-78
2023/02/01 08:03:13;;;;;;;;;;;;;;;4.25;59.42;101328.38;5047671;28;19913;-77
2023/02/01 08:06:05;;;;;;;;;;;;;;;3.87;60.35;101329.38;5041096;28;19916;-78
2023/02/01 08:08:57;;;;;;;;;;;;;;;4.32;58.48;101328.16;5052556;28;19912;-83
2023/02/01 08:11:46;;;;;;;;;;;;;;;4.03;60.31;101333.03;5050458;28;20528;-83
2023/02/01 08:14:38;;;;;;;;;;;;;;;4.00;61.57;101333.56;5054861;28;19913;-77
2023/02/01 08:17:30;;;;;;;;;;;;;;;4.32;60.99;101317.38;5050124;28;20397;-78
2023/02/01 08:20:22;;;;;;;;;;;;;;;4.34;60.29;101312.53;5047902;28;19913;-78
2023/02/01 08:23:14;;;;;;;;;;;;;;;4.60;60.14;101311.63;5051924;28;19999;-77
2023/02/01 08:26:10;;;;;;;;;;;;;;;4.93;60.29;101303.16;5049251;28;20381;-78
2023/02/01 08:29:02;;;;;;;;;;;;;;;4.93;60.73;101296.97;5047066;28;19913;-78
2023/02/01 08:31:54;;;;;;;;;;;;;;;5.06;61.14;101302.69;5048553;28;20381;-77
2023/02/01 08:34:44;;;;;;;;;;;;;;;5.38;60.55;101307.94;5040654;28;19913;-78
2023/02/01 08:37:36;;;;;;;;;;;;;;;5.51;60.68;101312.81;5057565;28;19912;-79
2023/02/01 08:40:28;;;;;;;;;;;;;;;5.52;61.07;101294.75;5053018;28;19912;-79
2023/02/01 08:43:18;;;;;;;;;;;;;;;6.11;58.93;101308.56;5057606;28;20368;-79
2023/02/01 08:46:10;;;;;;;;;;;;;;;6.45;58.21;101308.78;5055799;28;19912;-79
2023/02/01 08:49:02;;;;;;;;;;;;;;;6.53;59.45;101324.44;5042274;28;19921;-80
2023/02/01 08:51:51;;;;;;;;;;;;;;;5.84;61.92;101310.69;5046475;28;19913;-79
2023/02/01 08:54:40;;;;;;;;;;;;;;;5.79;63.36;101316.88;5055311;28;19912;-79
2023/02/01 08:57:32;;;;;;;;;;;;;;;5.71;64.83;101319.31;5058931;28;19920;-80
2023/02/01 09:00:24;;;;;;;;;;;;;;;5.47;66.43;101319.00;5056549;28;19916;-79
2023/02/01 09:03:13;;;;;;;;;;;;;;;5.11;68.38;101312.69;5053996;28;19913;-80
2023/02/01 09:06:06;;;;;;;;;;;;;;;5.12;70.90;101323.22;5053377;28;19916;-79
2023/02/01 09:08:58;;;;;;;;;;;;;;;4.87;71.50;101325.81;5055140;28;19913;-79
2023/02/01 09:11:50;;;;;;;;;;;;;;;5.07;71.81;101319.69;5048907;28;20389;-79
2023/02/01 09:14:42;;;;;;;;;;;;;;;5.60;69.52;101319.28;5049405;28;20316;-78
2023/02/01 09:17:34;;;;;;;;;;;;;;;5.62;69.04;101308.25;5054681;28;19917;-80
2023/02/01 09:20:26;;;;;;;;;;;;;;;5.66;68.35;101308.50;5057152;28;19912;-80
2023/02/01 09:23:15;;;;;;;;;;;;;;;5.77;69.07;101310.97;5056215;28;19920;-80
2023/02/01 09:26:07;;;;;;;;;;;;;;;6.08;67.95;101309.13;5059617;28;19916;-79
2023/02/01 09:28:59;;;;;;;;;;;;;;;6.17;67.55;101306.66;5053970;28;19913;-79
2023/02/01 09:31:51;;;;;;;;;;;;;;;5.84;68.19;101303.38;5046332;28;20373;-79
2023/02/01 09:34:43;;;;;;;;;;;;;;;5.85;68.92;101305.00;5045606;28;19913;-79
2023/02/01 09:37:35;;;;;;;;;;;;;;;6.08;67.92;101311.00;5059326;28;19913;-79
2023/02/01 09:40:27;;;;;;;;;;;;;;;6.43;67.09;101317.19;5054504;28;19913;-79
2023/02/01 09:43:31;;;;;;;;;;;;;;;5.99;68.87;101316.13;5057649;28;19913;-79
2023/02/01 09:46:25;;;;;;;;;;;;;;;6.29;68.30;101331.53;5055282;28;19916;-79
2023/02/01 09:49:19;;;;;;;;;;;;;;;6.01;68.39;101313.97;5051053;28;20389;-79
2023/02/01 09:52:07;;;;;;;;;;;;;;;5.99;69.21;101316.91;5055958;28;19913;-79
2023/02/01 09:55:01;;;;;;;;;;;;;;;6.06;69.66;101315.84;5048861;28;19913;-79
2023/02/01 09:58:12;;;;;;;;;;;;;;;6.01;69.91;101322.06;5052877;28;20369;-79
2023/02/01 10:01:05;;;;;;;;;;;;;;;6.24;69.61;101321.53;5054302;28;19916;-79
2023/02/01 10:04:00;;;;;;;;;;;;;;;6.67;67.52;101314.69;5038177;28;19921;-79
2023/02/01 10:07:04;;;;;;;;;;;;;;;6.80;67.35;101330.34;5036389;28;19913;-79
2023/02/01 10:10:12;;;;;;;;;;;;;;;6.90;66.44;101326.00;5032904;28;20310;-79
2023/02/01 10:13:27;;;;;;;;;;;;;;;6.87;65.95;101327.34;5046052;28;19917;-79
2023/02/01 10:16:21;;;;;;;;;;;;;;;7.12;64.91;101313.72;5050893;28;19913;-79
2023/02/01 10:19:27;;;;;;;;;;;;;;;7.13;65.21;101309.13;5057320;28;19913;-79
2023/02/01 10:22:28;;;;;;;;;;;;;;;7.28;64.26;101306.34;5053493;28;19912;-76
2023/02/01 10:25:29;;;;;;;;;;;;;;;7.48;63.81;101302.72;5050756;28;20310;-77
2023/02/01 10:28:21;;;;;;;;;;;;;;;7.47;64.71;101293.78;5043535;28;19912;-77
2023/02/01 10:31:13;;;;;;;;;;;;;;;7.70;63.39;101293.09;5045113;28;19913;-77
2023/02/01 10:34:07;;;;;;;;;;;;;;;7.82;62.63;101290.03;5055161;28;19913;-77
2023/02/01 10:37:02;;;;;;;;;;;;;;;7.76;62.33;101295.78;5047521;28;20324;-77
2023/02/01 10:39:54;;;;;;;;;;;;;;;7.70;61.54;101297.69;5054637;28;19913;-77
2023/02/01 10:42:46;;;;;;;;;;;;;;;7.86;61.06;101298.41;5050664;28;19912;-77
2023/02/01 10:45:39;;;;;;;;;;;;;;;7.95;61.12;101300.22;5056065;28;19917;-77
2023/02/01 10:48:28;;;;;;;;;;;;;;;8.01;60.24;101303.69;5060124;28;19912;-77
2023/02/01 10:51:23;;;;;;;;;;;;;;;7.92;60.93;101302.69;5052935;28;20389;-77
2023/02/01 10:54:17;;;;;;;;;;;;;;;8.20;60.38;101296.47;5060771;28;19913;-77
2023/02/01 10:57:12;;;;;;;;;;;;;;;8.31;60.00;101306.16;5058836;28;19913;-77
2023/02/01 11:00:05;;;;;;;;;;;;;;;8.45;59.89;101304.41;5051546;28;19916;-77
2023/02/01 11:02:56;;;;;;;;;;;;;;;8.50;59.29;101293.50;5059589;28;20308;-77
2023/02/01 11:05:48;;;;;;;;;;;;;;;8.53;59.79;101282.06;5057958;28;19917;-76
2023/02/01 11:08:44;;;;;;;;;;;;;;;8.78;59.75;101285.63;5061379;28;20293;-76
2023/02/01 11:11:53;;;;;;;;;;;;;;;8.58;60.75;101283.94;5052650;28;19913;-77
2023/02/01 11:14:45;;;;;;;;;;;;;;;8.69;60.15;101281.91;5048164;28;19912;-76
2023/02/01 11:17:37;;;;;;;;;;;;;;;8.65;59.60;101289.81;5058982;28;19913;-77
2023/02/01 11:20:44;;;;;;;;;;;;;;;8.80;58.99;101289.66;5041983;28;19913;-77
2023/02/01 11:23:41;;;;;;;;;;;;;;;9.07;58.75;101285.53;5056495;28;19912;-76
2023/02/01 11:26:32;;;;;;;;;;;;;;;8.99;59.11;101292.38;5046039;28;19916;-77
2023/02/01 11:29:29;;;;;;;;;;;;;;;9.15;58.74;101282.16;5046859;28;19916;-77
2023/02/01 11:32:22;;;;;;;;;;;;;;;9.01;59.20;101282.06;5047633;28;19913;-77
2023/02/01 11:35:13;;;;;;;;;;;;;;;9.06;58.49;101281.19;5050382;28;19912;-76
2023/02/01 11:38:13;;;;;;;;;;;;;;;9.36;58.44;101291.63;5060470;28;19965;-77
2023/02/01 11:41:22;;;;;;;;;;;;;;;9.41;58.00;101295.09;5049917;28;19925;-77
2023/02/01 11:44:22;;;;;;;;;;;;;;;9.38;58.20;101276.69;5058128;28;20440;-77
2023/02/01 11:47:21;;;;;;;;;;;;;;;9.15;59.13;101274.81;5057974;28;19917;-77
2023/02/01 11:50:21;;;;;;;;;;;;;;;9.49;57.81;101268.41;5054388;28;19913;-77
2023/02/01 11:53:29;;;;;;;;;;;;;;;9.56;57.31;101266.91;5050830;28;19913;-77
2023/02/01 11:56:24;;;;;;;;;;;;;;;9.76;57.60;101257.66;5054884;28;19913;-77
2023/02/01 11:59:32;;;;;;;;;;;;;;;9.81;57.60;101257.56;5055165;28;20373;-77
2023/02/01 12:02:34;;;;;;;;;;;;;;;9.86;56.80;101249.31;5055820;28;20328;-77
2023/02/01 12:05:30;;;;;;;;;;;;;;;9.66;58.35;101238.78;5062556;28;19917;-77
2023/02/01 12:08:50;;;;;;;;;;;;;;;9.41;58.23;101235.38;5056422;28;19913;-77
2023/02/01 12:11:51;;;;;;;;;;;;;;;9.44;58.20;101228.56;5007433;28;19913;-77
2023/02/01 12:14:49;;;;;;;;;;;;;;;9.41;57.88;101224.53;5040801;28;19912;-77
2023/02/01 12:18:05;;;;;;;;;;;;;;;9.41;59.09;101223.72;5044511;28;19912;-77
2023/02/01 12:20:55;;;;;;;;;;;;;;;9.31;59.06;101224.69;5045214;28;19916;-76
2023/02/01 12:24:08;;;;;;;;;;;;;;;9.19;59.42;101215.38;5054877;28;19913;-76
2023/02/01 12:27:35;;;;;;;;;;;;;;;9.31;59.33;101221.97;5032367;28;19917;-76
2023/02/01 12:30:34;;;;;;;;;;;;;;;9.07;59.75;101210.38;4991296;28;19913;-76
2023/02/01 12:33:43;;;;;;;;;;;;;;;9.22;59.60;101206.63;4991839;28;20398;-76
2023/02/01 12:36:41;;;;;;;;;;;;;;;9.39;59.01;101199.59;5037312;28;19912;-77
2023/02/01 12:39:39;;;;;;;;;;;;;;;9.55;58.33;101192.00;5049451;28;20397;-76
2023/02/01 12:42:31;;;;;;;;;;;;;;;9.66;58.34;101188.00;5058972;28;19912;-77
2023/02/01 12:45:27;;;;;;;;;;;;;;;9.73;57.76;101187.63;5041992;28;20330;-76
2023/02/01 12:48:33;;;;;;;;;;;;;;;9.77;57.84;101165.00;5054193;28;19932;-76
2023/02/01 12:51:26;;;;;;;;;;;;;;;9.88;57.91;101171.88;5053433;28;19912;-76
2023/02/01 12:54:24;;;;;;;;;;;;;;;9.85;57.68;101174.41;5054880;28;19913;-76
2023/02/01 12:57:25;;;;;;;;;;;;;;;9.97;57.69;101185.56;5058403;28;20401;-76
2023/02/01 13:00:17;;;;;;;;;;;;;;;9.88;57.70;101180.03;5049866;28;20472;-76
2023/02/01 13:03:10;;;;;;;;;;;;;;;10.14;57.05;101172.22;5053158;28;19912;-76
2023/02/01 13:06:06;;;;;;;;;;;;;;;10.20;56.62;101154.75;5042298;28;20397;-76
2023/02/01 13:08:59;;;;;;;;;;;;;;;10.36;56.69;101149.00;5046667;28;19913;-76
2023/02/01 13:11:52;;;;;;;;;;;;;;;10.30;56.32;101151.03;5044834;28;19912;-76
2023/02/01 13:14:46;;;;;;;;;;;;;;;10.47;56.81;101144.94;5048849;28;20324;-77
2023/02/01 13:17:38;;;;;;;;;;;;;;;10.37;56.94;101139.72;5044445;28;20309;-76
2023/02/01 13:20:37;;;;;;;;;;;;;;;10.51;56.39;101127.75;5042618;28;19913;-76
2023/02/01 13:23:29;;;;;;;;;;;;;;;10.67;56.46;101129.00;5041803;28;19913;-76
2023/02/01 13:26:19;;;;;;;;;;;;;;;10.78;56.19;101124.16;5051032;28;19917;-76
2023/02/01 13:29:12;;;;;;;;;;;;;;;10.87;56.18;101122.31;5053192;28;19913;-79
2023/02/01 13:32:20;;;;;;;;;;;;;;;10.89;55.40;101125.53;5051125;28;19913;-78
2023/02/01 13:35:13;;;;;;;;;;;;;;;11.01;55.38;101125.81;5049462;28;20311;-77
2023/02/01 13:38:08;;;;;;;;;;;;;;;11.04;55.45;101117.00;5049978;28;19913;-77
2023/02/01 13:41:16;;;;;;;;;;;;;;;11.07;55.61;101119.09;5060026;28;19912;-77
2023/02/01 13:44:11;;;;;;;;;;;;;;;11.17;55.67;101114.56;5059619;28;19913;-77
2023/02/01 13:47:05;;;;;;;;;;;;;;;11.17;55.32;101109.13;5058734;28;19916;-77
2023/02/01 13:49:55;;;;;;;;;;;;;;;11.21;55.25;101108.19;5055360;28;20301;-77
2023/02/01 13:52:52;;;;;;;;;;;;;;;11.23;54.96;101116.03;5058898;28;19913;-77
2023/02/01 13:55:43;;;;;;;;;;;;;;;11.22;54.86;101111.72;5059283;28;20461;-77
2023/02/01 13:58:36;;;;;;;;;;;;;;;11.24;55.32;101104.81;5059499;28;19917;-78
2023/02/01 14:01:25;;;;;;;;;;;;;;;11.34;54.75;101101.84;5057303;28;19913;-77
2023/02/01 14:04:33;;;;;;;;;;;;;;;11.35;54.46;101108.09;5061465;28;19912;-77
2023/02/01 14:07:25;;;;;;;;;;;;;;;11.32;54.39;101106.03;5058584;28;19916;-77
2023/02/01 14:10:33;;;;;;;;;;;;;;;11.35;54.77;101111.63;5061369;28;19913;-77
2023/02/01 14:13:32;;;;;;;;;;;;;;;11.38;54.75;101099.31;5057936;28;19916;-77
2023/02/01 14:16:22;;;;;;;;;;;;;;;11.51;54.57;101093.00;5062145;28;19913;-77
2023/02/01 14:19:23;;;;;;;;;;;;;;;11.49;54.60;101103.38;5055864;28;19916;-77
2023/02/01 14:22:19;;;;;;;;;;;;;;;11.55;54.40;101092.06;5054242;28;20305;-77
2023/02/01 14:25:18;;;;;;;;;;;;;;;11.53;55.06;101096.19;5061098;28;19917;-77
2023/02/01 14:28:25;;;;;;;;;;;;;;;11.64;54.63;101104.91;5054944;28;19913;-77
2023/02/01 14:31:16;;;;;;;;;;;;;;;11.75;54.38;101096.19;5059630;28;19913;-77
2023/02/01 14:34:12;;;;;;;;;;;;;;;11.77;54.36;101091.25;5060209;28;20163;-77
2023/02/01 14:37:07;;;;;;;;;;;;;;;11.84;54.30;101086.13;5063228;28;20381;-78
2023/02/01 14:40:00;;;;;;;;;;;;;;;11.73;54.55;101079.38;5058622;28;20354;-77
2023/02/01 14:42:52;;;;;;;;;;;;;;;11.78;54.02;101092.84;5050892;28;19912;-77
2023/02/01 14:45:44;;;;;;;;;;;;;;;11.68;54.78;101084.13;5062218;28;19917;-77
2023/02/01 14:48:37;;;;;;;;;;;;;;;11.63;55.27;101082.31;5060310;28;19913;-77
2023/02/01 14:51:30;;;;;;;;;;;;;;;11.83;54.69;101092.72;5058503;28;20289;-77
2023/02/01 14:54:22;;;;;;;;;;;;;;;11.84;54.07;101091.56;5061678;28;20524;-77
2023/02/01 14:57:20;;;;;;;;;;;;;;;11.79;53.98;101093.63;5059670;28;20542;-77
2023/02/01 15:00:22;;;;;;;;;;;;;;;11.82;54.10;101093.03;5057976;28;19913;-77
2023/02/01 15:03:27;;;;;;;;;;;;;;;11.75;54.82;101085.28;5058998;28;19912;-76
2023/02/01 15:06:32;;;;;;;;;;;;;;;11.78;54.47;101089.31;5062949;28;20389;-78
2023/02/01 15:09:24;;;;;;;;;;;;;;;11.76;54.72;101086.91;5060249;28;20381;-78
2023/02/01 15:12:17;;;;;;;;;;;;;;;11.71;54.96;101070.66;5058037;28;19921;-78
2023/02/01 15:15:22;;;;;;;;;;;;;;;11.86;54.69;101077.66;5060989;28;19913;-77
2023/02/01 15:18:18;;;;;;;;;;;;;;;11.94;54.25;101074.94;5058941;28;19912;-77
2023/02/01 15:21:16;;;;;;;;;;;;;;;11.99;54.11;101074.81;5058483;28;19913;-77
2023/02/01 15:24:17;;;;;;;;;;;;;;;12.12;53.87;101069.56;5055397;28;20389;-77
2023/02/01 15:27:11;;;;;;;;;;;;;;;12.09;53.65;101070.19;5062409;28;19917;-78